createdAt,value
2019-03-04T00:00:39.480Z,20.65
2019-03-04T00:01:39.450Z,20.63
2019-03-04T00:02:39.444Z,20.65
2019-03-04T00:03:39.432Z,20.65
2019-03-04T00:04:39.425Z,20.66
2019-03-04T00:05:39.427Z,20.63
2019-03-04T00:06:39.401Z,20.65
2019-03-04T00:07:39.669Z,20.63
2019-03-04T00:08:39.377Z,20.63
2019-03-04T00:09:39.365Z,20.65
2019-03-04T00:10:39.352Z,20.65
2019-03-04T00:11:39.348Z,20.63
2019-03-04T00:12:39.329Z,20.65
2019-03-04T00:13:39.347Z,20.63
2019-03-04T00:14:39.308Z,20.63
2019-03-04T00:15:39.299Z,20.62
2019-03-04T00:16:39.291Z,20.63
2019-03-04T00:17:39.281Z,20.63
2019-03-04T00:18:39.261Z,20.62
2019-03-04T00:19:39.280Z,20.62
2019-03-04T00:20:39.240Z,20.62
2019-03-04T00:21:39.228Z,20.62
2019-03-04T00:22:39.223Z,20.62
2019-03-04T00:23:39.212Z,20.63
2019-03-04T00:24:39.222Z,20.63
2019-03-04T00:25:39.185Z,20.62
2019-03-04T00:26:39.176Z,20.62
2019-03-04T00:27:39.169Z,20.62
2019-03-04T00:28:39.157Z,20.63
2019-03-04T00:29:39.167Z,20.62
2019-03-04T00:30:39.129Z,20.62
2019-03-04T00:31:39.120Z,20.62
2019-03-04T00:32:39.130Z,20.62
2019-03-04T00:33:39.098Z,20.60
2019-03-04T00:34:39.299Z,20.60
2019-03-04T00:35:39.080Z,20.62
2019-03-04T00:36:39.065Z,20.62
2019-03-04T00:37:39.050Z,20.62
2019-03-04T00:38:39.045Z,20.62
2019-03-04T00:39:39.034Z,20.60
2019-03-04T00:40:39.041Z,20.60
2019-03-04T00:41:39.016Z,20.62
2019-03-04T00:42:38.999Z,20.60
2019-03-04T00:43:39.010Z,20.60
2019-03-04T00:44:38.975Z,20.60
2019-03-04T00:45:38.963Z,20.62
2019-03-04T00:46:38.954Z,20.62
2019-03-04T00:47:38.946Z,20.60
2019-03-04T00:48:38.938Z,20.62
2019-03-04T00:49:38.960Z,20.60
2019-03-04T00:50:38.916Z,20.60
2019-03-04T00:51:38.911Z,20.60
2019-03-04T00:52:38.900Z,20.60
2019-03-04T00:53:38.882Z,20.59
2019-03-04T00:54:38.873Z,20.62
2019-03-04T00:55:38.885Z,20.60
2019-03-04T00:56:38.862Z,20.60
2019-03-04T00:57:38.839Z,20.62
2019-03-04T00:58:38.828Z,20.60
2019-03-04T00:59:38.819Z,20.60
2019-03-04T01:00:38.801Z,20.60
2019-03-04T01:01:38.816Z,20.60
2019-03-04T01:02:38.785Z,20.62
2019-03-04T01:03:38.769Z,20.60
2019-03-04T01:04:38.759Z,20.59
2019-03-04T01:05:38.753Z,20.60
2019-03-04T01:06:38.874Z,20.59
2019-03-04T01:07:38.725Z,20.60
2019-03-04T01:08:38.714Z,20.59
2019-03-04T01:09:38.701Z,20.59
2019-03-04T01:10:38.692Z,20.59
2019-03-04T01:11:38.702Z,20.59
2019-03-04T01:12:38.874Z,20.59
2019-03-04T01:13:38.656Z,20.60
2019-03-04T01:14:38.656Z,20.59
2019-03-04T01:15:38.636Z,20.60
2019-03-04T01:16:38.622Z,20.59
2019-03-04T01:17:38.635Z,20.60
2019-03-04T01:18:38.626Z,20.59
2019-03-04T01:19:38.591Z,20.59
2019-03-04T01:20:38.578Z,20.60
2019-03-04T01:21:38.574Z,20.60
2019-03-04T01:22:38.778Z,20.62
2019-03-04T01:23:38.544Z,20.59
2019-03-04T01:24:38.539Z,20.59
2019-03-04T01:25:38.527Z,20.60
2019-03-04T01:26:38.521Z,20.60
2019-03-04T01:27:38.505Z,20.60
2019-03-04T01:28:38.527Z,20.60
2019-03-04T01:29:38.483Z,20.60
2019-03-04T01:30:38.469Z,20.60
2019-03-04T01:31:38.454Z,20.60
2019-03-04T01:32:38.450Z,20.60
2019-03-04T01:33:38.433Z,20.60
2019-03-04T01:34:38.633Z,20.59
2019-03-04T01:35:38.411Z,20.60
2019-03-04T01:36:38.404Z,20.60
2019-03-04T01:37:38.387Z,20.60
2019-03-04T01:38:38.377Z,20.59
2019-03-04T01:39:38.367Z,20.59
2019-03-04T01:40:38.373Z,20.59
2019-03-04T01:41:38.345Z,20.59
2019-03-04T01:42:38.333Z,20.59
2019-03-04T01:43:38.343Z,20.58
2019-03-04T01:44:38.315Z,20.60
2019-03-04T01:45:38.380Z,20.59
2019-03-04T01:46:38.292Z,20.59
2019-03-04T01:47:38.289Z,20.59
2019-03-04T01:48:38.288Z,20.59
2019-03-04T01:49:38.262Z,20.58
2019-03-04T01:50:38.251Z,20.59
2019-03-04T01:51:38.251Z,20.59
2019-03-04T01:52:38.229Z,20.59
2019-03-04T01:53:38.213Z,20.59
2019-03-04T01:54:38.209Z,20.59
2019-03-04T01:55:38.191Z,20.58
2019-03-04T01:56:38.217Z,20.59
2019-03-04T01:57:38.169Z,20.58
2019-03-04T01:58:38.161Z,20.59
2019-03-04T01:59:38.147Z,20.59
2019-03-04T02:00:38.138Z,20.58
2019-03-04T02:01:38.147Z,20.59
2019-03-04T02:02:38.112Z,20.58
2019-03-04T02:03:38.100Z,20.58
2019-03-04T02:04:38.096Z,20.58
2019-03-04T02:05:38.089Z,20.59
2019-03-04T02:06:38.090Z,20.58
2019-03-04T02:07:38.066Z,20.58
2019-03-04T02:08:38.052Z,20.59
2019-03-04T02:09:38.067Z,20.58
2019-03-04T02:10:38.026Z,20.58
2019-03-04T02:11:38.015Z,20.58
2019-03-04T02:12:38.008Z,20.59
2019-03-04T02:13:37.993Z,20.59
2019-03-04T02:14:37.983Z,20.58
2019-03-04T02:15:38.009Z,20.58
2019-03-04T02:16:37.962Z,20.58
2019-03-04T02:17:37.950Z,20.59
2019-03-04T02:18:37.935Z,20.58
2019-03-04T02:19:37.934Z,20.58
2019-03-04T02:20:37.935Z,20.58
2019-03-04T02:21:37.922Z,20.58
2019-03-04T02:22:37.895Z,20.58
2019-03-04T02:23:37.883Z,20.59
2019-03-04T02:24:37.876Z,20.58
2019-03-04T02:25:37.878Z,20.56
2019-03-04T02:26:37.851Z,20.56
2019-03-04T02:27:37.842Z,20.56
2019-03-04T02:28:37.859Z,20.56
2019-03-04T02:29:37.822Z,20.56
2019-03-04T02:30:37.807Z,20.56
2019-03-04T02:31:37.829Z,20.58
2019-03-04T02:32:37.786Z,20.59
2019-03-04T02:33:37.781Z,20.58
2019-03-04T02:34:37.767Z,20.55
2019-03-04T02:35:37.761Z,20.56
2019-03-04T02:36:37.744Z,20.56
2019-03-04T02:37:37.751Z,20.55
2019-03-04T02:38:37.719Z,20.56
2019-03-04T02:39:37.709Z,20.58
2019-03-04T02:40:37.705Z,20.58
2019-03-04T02:41:37.686Z,20.56
2019-03-04T02:42:37.701Z,20.56
2019-03-04T02:43:37.667Z,20.56
2019-03-04T02:44:37.655Z,20.56
2019-03-04T02:45:37.870Z,20.56
2019-03-04T02:46:37.641Z,20.56
2019-03-04T02:47:37.619Z,20.56
2019-03-04T02:48:37.607Z,20.55
2019-03-04T02:49:37.596Z,20.56
2019-03-04T02:50:37.591Z,20.58
2019-03-04T02:51:37.597Z,20.56
2019-03-04T02:52:37.561Z,20.56
2019-03-04T02:53:37.558Z,20.56
2019-03-04T02:54:37.543Z,20.55
2019-03-04T02:55:37.536Z,20.56
2019-03-04T02:56:37.561Z,20.56
2019-03-04T02:57:37.515Z,20.55
2019-03-04T02:58:37.493Z,20.56
2019-03-04T02:59:37.485Z,20.55
2019-03-04T03:00:37.475Z,20.56
2019-03-04T03:01:37.469Z,20.55
2019-03-04T03:02:37.677Z,20.55
2019-03-04T03:03:37.446Z,20.55
2019-03-04T03:04:37.430Z,20.56
2019-03-04T03:05:37.426Z,20.55
2019-03-04T03:06:37.414Z,20.56
2019-03-04T03:07:37.403Z,20.56
2019-03-04T03:08:37.409Z,20.56
2019-03-04T03:09:37.383Z,20.58
2019-03-04T03:10:37.365Z,20.52
2019-03-04T03:11:37.354Z,20.55
2019-03-04T03:12:37.345Z,20.55
2019-03-04T03:13:37.348Z,20.56
2019-03-04T03:14:37.320Z,20.55
2019-03-04T03:15:37.313Z,20.55
2019-03-04T03:16:37.299Z,20.56
2019-03-04T03:17:37.283Z,20.55
2019-03-04T03:18:37.312Z,20.56
2019-03-04T03:19:37.262Z,20.55
2019-03-04T03:20:37.257Z,20.56
2019-03-04T03:21:37.302Z,20.52
2019-03-04T03:22:37.229Z,20.55
2019-03-04T03:23:37.220Z,20.52
2019-03-04T03:24:37.251Z,20.55
2019-03-04T03:25:37.200Z,20.55
2019-03-04T03:26:37.187Z,20.56
2019-03-04T03:27:37.273Z,20.55
2019-03-04T03:28:37.171Z,20.55
2019-03-04T03:29:37.161Z,20.55
2019-03-04T03:30:37.174Z,20.55
2019-03-04T03:31:37.140Z,20.55
2019-03-04T03:32:37.143Z,20.55
2019-03-04T03:33:37.263Z,20.55
2019-03-04T03:34:37.104Z,20.56
2019-03-04T03:35:37.316Z,20.55
2019-03-04T03:36:37.080Z,20.56
2019-03-04T03:37:37.073Z,20.55
2019-03-04T03:38:37.067Z,20.55
2019-03-04T03:39:37.054Z,20.55
2019-03-04T03:40:37.043Z,20.52
2019-03-04T03:41:37.048Z,20.52
2019-03-04T03:42:37.037Z,20.52
2019-03-04T03:43:37.006Z,20.55
2019-03-04T03:44:37.009Z,20.56
2019-03-04T03:45:37.021Z,20.55
2019-03-04T03:46:36.977Z,20.55
2019-03-04T03:47:36.965Z,20.55
2019-03-04T03:48:36.946Z,20.55
2019-03-04T03:49:36.941Z,20.52
2019-03-04T03:50:36.928Z,20.55
2019-03-04T03:51:36.929Z,20.55
2019-03-04T03:52:36.901Z,20.55
2019-03-04T03:53:36.895Z,20.55
2019-03-04T03:54:36.884Z,20.55
2019-03-04T03:55:36.897Z,20.55
2019-03-04T03:56:36.879Z,20.56
2019-03-04T03:57:36.866Z,20.55
2019-03-04T03:58:36.838Z,20.52
2019-03-04T03:59:36.826Z,20.52
2019-03-04T04:00:36.815Z,20.55
2019-03-04T04:01:36.806Z,20.55
2019-03-04T04:02:36.800Z,20.55
2019-03-04T04:03:36.806Z,20.55
2019-03-04T04:04:36.773Z,20.55
2019-03-04T04:05:36.782Z,20.55
2019-03-04T04:06:36.754Z,20.55
2019-03-04T04:07:36.739Z,20.56
2019-03-04T04:08:36.758Z,20.56
2019-03-04T04:09:36.718Z,20.55
2019-03-04T04:10:36.704Z,20.55
2019-03-04T04:11:36.714Z,20.52
2019-03-04T04:12:36.691Z,20.55
2019-03-04T04:13:36.694Z,20.55
2019-03-04T04:14:36.667Z,20.52
2019-03-04T04:15:36.658Z,20.55
2019-03-04T04:16:36.641Z,20.55
2019-03-04T04:17:36.635Z,20.51
2019-03-04T04:18:36.683Z,20.52
2019-03-04T04:19:36.608Z,20.52
2019-03-04T04:20:36.604Z,20.51
2019-03-04T04:21:36.590Z,20.51
2019-03-04T04:22:36.584Z,20.52
2019-03-04T04:23:36.571Z,20.52
2019-03-04T04:24:36.593Z,20.51
2019-03-04T04:25:36.546Z,20.51
2019-03-04T04:26:36.543Z,20.51
2019-03-04T04:27:36.524Z,20.51
2019-03-04T04:28:36.529Z,20.52
2019-03-04T04:29:36.502Z,20.52
2019-03-04T04:30:36.711Z,20.50
2019-03-04T04:31:36.485Z,20.51
2019-03-04T04:32:36.471Z,20.51
2019-03-04T04:33:36.461Z,20.51
2019-03-04T04:34:36.447Z,20.50
2019-03-04T04:35:36.434Z,20.50
2019-03-04T04:36:36.451Z,20.50
2019-03-04T04:37:36.413Z,20.48
2019-03-04T04:38:36.406Z,20.50
2019-03-04T04:39:36.395Z,20.50
2019-03-04T04:40:36.384Z,20.48
2019-03-04T04:41:36.408Z,20.50
2019-03-04T04:42:36.360Z,20.50
2019-03-04T04:43:36.346Z,20.50
2019-03-04T04:44:36.340Z,20.48
2019-03-04T04:45:36.328Z,20.51
2019-03-04T04:46:36.315Z,20.48
2019-03-04T04:47:36.327Z,20.50
2019-03-04T04:48:36.296Z,20.50
2019-03-04T04:49:36.283Z,20.48
2019-03-04T04:50:36.270Z,20.48
2019-03-04T04:51:36.268Z,20.48
2019-03-04T04:52:36.270Z,20.48
2019-03-04T04:53:36.234Z,20.47
2019-03-04T04:54:36.396Z,20.47
2019-03-04T04:55:36.210Z,20.48
2019-03-04T04:56:36.198Z,20.48
2019-03-04T04:57:36.207Z,20.48
2019-03-04T04:58:36.179Z,20.47
2019-03-04T04:59:36.186Z,20.48
2019-03-04T05:00:36.175Z,20.44
2019-03-04T05:01:36.143Z,20.48
2019-03-04T05:02:36.132Z,20.44
2019-03-04T05:03:36.125Z,20.44
2019-03-04T05:04:36.110Z,20.47
2019-03-04T05:05:36.124Z,20.44
2019-03-04T05:06:36.087Z,20.44
2019-03-04T05:07:36.127Z,20.44
2019-03-04T05:08:36.071Z,20.44
2019-03-04T05:09:36.063Z,20.44
2019-03-04T05:10:36.051Z,20.43
2019-03-04T05:11:36.035Z,20.43
2019-03-04T05:12:36.026Z,20.44
2019-03-04T05:13:36.065Z,20.47
2019-03-04T05:14:36.010Z,20.47
2019-03-04T05:15:35.989Z,20.44
2019-03-04T05:16:35.982Z,20.44
2019-03-04T05:17:35.967Z,20.44
2019-03-04T05:18:35.963Z,20.44
2019-03-04T05:19:35.967Z,20.47
2019-03-04T05:20:35.943Z,20.43
2019-03-04T05:21:35.930Z,20.47
2019-03-04T05:22:35.919Z,20.47
2019-03-04T05:23:35.909Z,20.44
2019-03-04T05:24:35.922Z,20.44
2019-03-04T05:25:35.892Z,20.47
2019-03-04T05:26:35.868Z,20.48
2019-03-04T05:27:35.859Z,20.47
2019-03-04T05:28:35.869Z,20.47
2019-03-04T05:29:35.877Z,20.48
2019-03-04T05:30:35.829Z,20.48
2019-03-04T05:31:35.814Z,20.47
2019-03-04T05:32:35.806Z,20.48
2019-03-04T05:33:35.794Z,20.48
2019-03-04T05:34:35.786Z,20.48
2019-03-04T05:35:35.900Z,20.50
2019-03-04T05:36:35.757Z,20.48
2019-03-04T05:37:35.770Z,20.50
2019-03-04T05:38:35.738Z,20.51
2019-03-04T05:39:35.723Z,20.51
2019-03-04T05:40:35.712Z,20.50
2019-03-04T05:41:35.730Z,20.52
2019-03-04T05:42:35.689Z,20.52
2019-03-04T05:43:35.677Z,20.52
2019-03-04T05:44:35.673Z,20.52
2019-03-04T05:45:35.658Z,20.55
2019-03-04T05:46:35.672Z,20.56
2019-03-04T05:47:35.658Z,20.56
2019-03-04T05:48:35.627Z,20.55
2019-03-04T05:49:35.615Z,20.55
2019-03-04T05:50:35.602Z,20.58
2019-03-04T05:51:35.594Z,20.58
2019-03-04T05:52:35.606Z,20.56
2019-03-04T05:53:35.568Z,20.58
2019-03-04T05:54:35.555Z,20.56
2019-03-04T05:55:35.567Z,20.58
2019-03-04T05:56:35.538Z,20.58
2019-03-04T05:57:35.532Z,20.58
2019-03-04T05:58:35.516Z,20.59
2019-03-04T05:59:35.505Z,20.59
2019-03-04T06:00:35.519Z,20.59
2019-03-04T06:01:35.481Z,20.59
2019-03-04T06:02:35.467Z,20.59
2019-03-04T06:03:35.461Z,20.60
2019-03-04T06:04:35.447Z,20.59
2019-03-04T06:05:35.434Z,20.60
2019-03-04T06:06:35.446Z,20.60
2019-03-04T06:07:35.413Z,20.62
2019-03-04T06:08:35.420Z,20.62
2019-03-04T06:09:35.396Z,20.62
2019-03-04T06:10:35.399Z,20.62
2019-03-04T06:11:35.367Z,20.60
2019-03-04T06:12:35.355Z,20.62
2019-03-04T06:13:35.377Z,20.62
2019-03-04T06:14:35.338Z,20.62
2019-03-04T06:15:35.345Z,20.62
2019-03-04T06:16:35.318Z,20.62
2019-03-04T06:17:35.302Z,20.62
2019-03-04T06:18:35.502Z,20.65
2019-03-04T06:19:35.279Z,20.63
2019-03-04T06:20:35.266Z,20.62
2019-03-04T06:21:35.254Z,20.63
2019-03-04T06:22:35.248Z,20.62
2019-03-04T06:23:35.243Z,20.63
2019-03-04T06:24:35.462Z,20.63
2019-03-04T06:25:35.208Z,20.66
2019-03-04T06:26:35.199Z,20.65
2019-03-04T06:27:35.192Z,20.65
2019-03-04T06:28:35.178Z,20.65
2019-03-04T06:29:35.170Z,20.65
2019-03-04T06:30:35.178Z,20.65
2019-03-04T06:31:35.141Z,20.65
2019-03-04T06:32:35.131Z,20.66
2019-03-04T06:33:35.122Z,20.63
2019-03-04T06:34:35.112Z,20.65
2019-03-04T06:35:35.120Z,20.65
2019-03-04T06:36:35.089Z,20.65
2019-03-04T06:37:35.079Z,20.65
2019-03-04T06:38:35.069Z,20.65
2019-03-04T06:39:35.053Z,20.66
2019-03-04T06:40:35.061Z,20.65
2019-03-04T06:41:35.028Z,20.65
2019-03-04T06:42:35.020Z,20.65
2019-03-04T06:43:35.025Z,20.63
2019-03-04T06:44:35.011Z,20.63
2019-03-04T06:45:34.988Z,20.65
2019-03-04T06:46:34.985Z,20.65
2019-03-04T06:47:34.965Z,20.63
2019-03-04T06:48:34.990Z,20.63
2019-03-04T06:49:34.945Z,20.63
2019-03-04T06:50:34.929Z,20.63
2019-03-04T06:51:34.923Z,20.63
2019-03-04T06:52:34.911Z,20.63
2019-03-04T06:53:34.900Z,20.63
2019-03-04T06:54:35.109Z,20.63
2019-03-04T06:55:34.873Z,20.62
2019-03-04T06:56:34.866Z,20.62
2019-03-04T06:57:34.853Z,20.63
2019-03-04T06:58:34.844Z,20.63
2019-03-04T06:59:34.836Z,20.60
2019-03-04T07:00:35.048Z,20.62
2019-03-04T07:01:34.812Z,20.62
2019-03-04T07:02:34.801Z,20.62
2019-03-04T07:03:34.790Z,20.60
2019-03-04T07:04:34.772Z,20.60
2019-03-04T07:05:34.766Z,20.62
2019-03-04T07:06:34.781Z,20.62
2019-03-04T07:07:34.741Z,20.62
2019-03-04T07:08:34.730Z,20.62
2019-03-04T07:09:34.729Z,20.60
2019-03-04T07:10:34.737Z,20.62
2019-03-04T07:11:34.704Z,20.60
2019-03-04T07:12:34.687Z,20.62
2019-03-04T07:13:34.671Z,20.62
2019-03-04T07:14:34.663Z,20.60
2019-03-04T07:15:34.653Z,20.60
2019-03-04T07:16:34.671Z,20.60
2019-03-04T07:17:34.629Z,20.62
2019-03-04T07:18:34.624Z,20.62
2019-03-04T07:19:34.609Z,20.62
2019-03-04T07:20:34.593Z,20.60
2019-03-04T07:21:34.592Z,20.59
2019-03-04T07:22:34.605Z,20.60
2019-03-04T07:23:34.564Z,20.60
2019-03-04T07:24:34.556Z,20.62
2019-03-04T07:25:34.546Z,20.60
2019-03-04T07:26:34.535Z,20.60
2019-03-04T07:27:34.560Z,20.60
2019-03-04T07:28:34.509Z,20.62
2019-03-04T07:29:34.493Z,20.62
2019-03-04T07:30:34.484Z,20.62
2019-03-04T07:31:34.475Z,20.62
2019-03-04T07:32:34.470Z,20.62
2019-03-04T07:33:34.469Z,20.62
2019-03-04T07:34:34.445Z,20.62
2019-03-04T07:35:34.435Z,20.62
2019-03-04T07:36:34.419Z,20.60
2019-03-04T07:37:34.415Z,20.62
2019-03-04T07:38:34.403Z,20.62
2019-03-04T07:39:34.402Z,20.62
2019-03-04T07:40:34.377Z,20.62
2019-03-04T07:41:34.364Z,20.62
2019-03-04T07:42:34.353Z,20.62
2019-03-04T07:43:34.337Z,20.62
2019-03-04T07:44:34.376Z,20.63
2019-03-04T07:45:34.318Z,20.63
2019-03-04T07:46:34.306Z,20.63
2019-03-04T07:47:34.300Z,20.63
2019-03-04T07:48:34.286Z,20.65
2019-03-04T07:49:34.279Z,20.63
2019-03-04T07:50:34.281Z,20.62
2019-03-04T07:51:34.251Z,20.65
2019-03-04T07:52:34.263Z,20.65
2019-03-04T07:53:34.233Z,20.65
2019-03-04T07:54:34.217Z,20.65
2019-03-04T07:55:34.258Z,20.66
2019-03-04T07:56:34.200Z,20.66
2019-03-04T07:57:34.186Z,20.65
2019-03-04T07:58:34.174Z,20.66
2019-03-04T07:59:34.163Z,20.66
2019-03-04T08:00:34.150Z,20.65
2019-03-04T08:01:34.169Z,20.65
2019-03-04T08:02:34.134Z,20.66
2019-03-04T08:03:34.120Z,20.65
2019-03-04T08:04:34.111Z,20.66
2019-03-04T08:05:34.098Z,20.66
2019-03-04T08:06:34.089Z,20.65
2019-03-04T08:07:34.116Z,20.66
2019-03-04T08:08:34.067Z,20.65
2019-03-04T08:09:34.052Z,20.66
2019-03-04T08:10:34.041Z,20.66
2019-03-04T08:11:34.033Z,20.66
2019-03-04T08:12:34.026Z,20.66
2019-03-04T08:13:34.034Z,20.67
2019-03-04T08:14:34.004Z,20.66
2019-03-04T08:15:33.986Z,20.66
2019-03-04T08:16:36.141Z,20.67
2019-03-04T08:17:33.966Z,20.66
2019-03-04T08:18:33.960Z,20.66
2019-03-04T08:19:33.964Z,20.66
2019-03-04T08:20:33.935Z,20.67
2019-03-04T08:21:33.916Z,20.67
2019-03-04T08:22:33.913Z,20.66
2019-03-04T08:23:33.900Z,20.69
2019-03-04T08:24:33.910Z,20.66
2019-03-04T08:25:33.879Z,20.66
2019-03-04T08:26:33.877Z,20.66
2019-03-04T08:27:33.856Z,20.66
2019-03-04T08:28:33.842Z,20.67
2019-03-04T08:29:33.832Z,20.67
2019-03-04T08:30:33.862Z,20.67
2019-03-04T08:31:33.808Z,20.67
2019-03-04T08:32:33.798Z,20.66
2019-03-04T08:33:33.789Z,20.67
2019-03-04T08:34:33.773Z,20.66
2019-03-04T08:35:33.762Z,20.66
2019-03-04T08:36:33.918Z,20.67
2019-03-04T08:37:33.739Z,20.66
2019-03-04T08:38:33.736Z,20.67
2019-03-04T08:39:33.719Z,20.66
2019-03-04T08:40:33.716Z,20.66
2019-03-04T08:41:33.705Z,20.66
2019-03-04T08:42:33.936Z,20.66
2019-03-04T08:43:33.692Z,20.65
2019-03-04T08:44:33.667Z,20.66
2019-03-04T08:45:33.651Z,20.66
2019-03-04T08:46:33.638Z,20.66
2019-03-04T08:47:33.633Z,20.66
2019-03-04T08:48:33.647Z,20.66
2019-03-04T08:49:33.606Z,20.66
2019-03-04T08:50:33.593Z,20.66
2019-03-04T08:51:33.580Z,20.65
2019-03-04T08:52:33.576Z,20.66
2019-03-04T08:53:33.565Z,20.66
2019-03-04T08:54:33.775Z,20.66
2019-03-04T08:55:33.541Z,20.66
2019-03-04T08:56:33.533Z,20.67
2019-03-04T08:57:33.521Z,20.66
2019-03-04T08:58:34.350Z,20.66
2019-03-04T08:59:33.502Z,20.66
2019-03-04T09:00:33.517Z,20.66
2019-03-04T09:01:33.479Z,20.66
2019-03-04T09:02:33.456Z,20.66
2019-03-04T09:03:33.453Z,20.66
2019-03-04T09:04:33.445Z,20.65
2019-03-04T09:05:33.427Z,20.67
2019-03-04T09:06:33.440Z,20.66
2019-03-04T09:07:33.406Z,20.66
2019-03-04T09:08:33.396Z,20.66
2019-03-04T09:09:33.380Z,20.65
2019-03-04T09:10:33.421Z,20.65
2019-03-04T09:11:33.382Z,20.65
2019-03-04T09:12:33.366Z,20.66
2019-03-04T09:13:33.338Z,20.66
2019-03-04T09:14:33.327Z,20.66
2019-03-04T09:15:33.314Z,20.65
2019-03-04T09:16:33.310Z,20.66
2019-03-04T09:17:33.335Z,20.66
2019-03-04T09:18:33.282Z,20.65
2019-03-04T09:19:33.274Z,20.66
2019-03-04T09:20:33.260Z,20.66
2019-03-04T09:21:33.250Z,20.66
2019-03-04T09:22:33.242Z,20.66
2019-03-04T09:23:33.243Z,20.65
2019-03-04T09:24:33.216Z,20.66
2019-03-04T09:25:33.203Z,20.65
2019-03-04T09:26:33.194Z,20.65
2019-03-04T09:27:33.197Z,20.65
2019-03-04T09:28:33.418Z,20.66
2019-03-04T09:29:33.163Z,20.65
2019-03-04T09:30:33.144Z,20.66
2019-03-04T09:31:33.135Z,20.65
2019-03-04T09:32:33.123Z,20.65
2019-03-04T09:33:33.114Z,20.65
2019-03-04T09:34:33.123Z,20.65
2019-03-04T09:35:33.097Z,20.65
2019-03-04T09:36:33.084Z,20.65
2019-03-04T09:37:33.091Z,20.66
2019-03-04T09:38:33.087Z,20.63
2019-03-04T09:39:33.046Z,20.65
2019-03-04T09:40:33.041Z,20.65
2019-03-04T09:41:33.026Z,20.65
2019-03-04T09:42:33.016Z,20.66
2019-03-04T09:43:33.004Z,20.66
2019-03-04T09:44:33.018Z,20.63
2019-03-04T09:45:38.657Z,20.65
2019-03-04T09:46:33.964Z,20.65
2019-03-04T09:47:32.962Z,20.65
2019-03-04T09:48:32.955Z,20.66
2019-03-04T09:49:32.939Z,20.66
2019-03-04T09:50:32.968Z,20.65
2019-03-04T09:51:32.919Z,20.65
2019-03-04T09:52:32.906Z,20.63
2019-03-04T09:53:39.487Z,20.65
2019-03-04T09:54:33.878Z,20.63
2019-03-04T09:55:32.890Z,20.65
2019-03-04T09:56:32.856Z,20.65
2019-03-04T09:57:32.849Z,20.63
2019-03-04T09:58:32.834Z,20.65
2019-03-04T09:59:32.824Z,20.63
2019-03-04T10:00:32.834Z,20.65
2019-03-04T10:01:32.911Z,20.65
2019-03-04T10:02:32.788Z,20.63
2019-03-04T10:03:32.785Z,20.65
2019-03-04T10:04:32.765Z,20.63
2019-03-04T10:05:32.753Z,20.63
2019-03-04T10:06:32.742Z,20.63
2019-03-04T10:07:32.903Z,20.63
2019-03-04T10:08:33.175Z,20.65
2019-03-04T10:09:32.715Z,20.65
2019-03-04T10:10:32.700Z,20.63
2019-03-04T10:11:32.687Z,20.65
2019-03-04T10:12:32.705Z,20.63
2019-03-04T10:13:32.679Z,20.65
2019-03-04T10:14:32.660Z,20.65
2019-03-04T10:15:32.644Z,20.65
2019-03-04T10:16:32.637Z,20.65
2019-03-04T10:17:32.676Z,20.65
2019-03-04T10:18:32.646Z,20.65
2019-03-04T10:19:32.598Z,20.65
2019-03-04T10:20:32.586Z,20.65
2019-03-04T10:21:32.573Z,20.65
2019-03-04T10:22:32.565Z,20.63
2019-03-04T10:23:32.573Z,20.65
2019-03-04T10:24:32.563Z,20.63
2019-03-04T10:25:32.531Z,20.63
2019-03-04T10:26:32.523Z,20.63
2019-03-04T10:27:32.509Z,20.65
2019-03-04T10:28:32.503Z,20.65
2019-03-04T10:29:32.504Z,20.66
2019-03-04T10:30:32.475Z,20.63
2019-03-04T10:31:32.497Z,20.65
2019-03-04T10:32:32.455Z,20.66
2019-03-04T10:33:32.447Z,20.63
2019-03-04T10:34:32.431Z,20.65
2019-03-04T10:35:32.423Z,20.65
2019-03-04T10:36:32.421Z,20.63
2019-03-04T10:37:32.423Z,20.65
2019-03-04T10:38:32.383Z,20.65
2019-03-04T10:39:32.378Z,20.63
2019-03-04T10:40:32.365Z,20.65
2019-03-04T10:41:32.355Z,20.65
2019-03-04T10:42:32.373Z,20.65
2019-03-04T10:43:32.328Z,20.63
2019-03-04T10:44:37.530Z,20.66
2019-03-04T10:45:33.309Z,20.65
2019-03-04T10:46:32.316Z,20.66
2019-03-04T10:47:32.292Z,20.63
2019-03-04T10:48:32.497Z,20.65
2019-03-04T10:49:32.268Z,20.65
2019-03-04T10:50:32.254Z,20.65
2019-03-04T10:51:32.239Z,20.63
2019-03-04T10:52:32.235Z,20.65
2019-03-04T10:53:32.217Z,20.65
2019-03-04T10:54:32.656Z,20.65
2019-03-04T10:55:41.479Z,20.65
2019-03-04T10:56:33.186Z,20.65
2019-03-04T10:57:32.181Z,20.63
2019-03-04T10:58:32.169Z,20.65
2019-03-04T10:59:32.157Z,20.63
2019-03-04T11:00:32.357Z,20.65
2019-03-04T11:01:32.129Z,20.65
2019-03-04T11:02:32.122Z,20.63
2019-03-04T11:03:32.106Z,20.65
2019-03-04T11:04:32.104Z,20.65
2019-03-04T11:05:32.088Z,20.63
2019-03-04T11:06:32.109Z,20.65
2019-03-04T11:07:32.071Z,20.65
2019-03-04T11:08:32.051Z,20.65
2019-03-04T11:09:32.050Z,20.65
2019-03-04T11:10:32.080Z,20.63
2019-03-04T11:11:32.028Z,20.65
2019-03-04T11:12:32.038Z,20.63
2019-03-04T11:13:31.995Z,20.65
2019-03-04T11:14:31.991Z,20.65
2019-03-04T11:15:31.976Z,20.65
2019-03-04T11:16:31.965Z,20.65
2019-03-04T11:17:31.987Z,20.63
2019-03-04T11:18:31.944Z,20.66
2019-03-04T11:19:31.935Z,20.63
2019-03-04T11:20:31.959Z,20.63
2019-03-04T11:21:31.911Z,20.63
2019-03-04T11:22:31.900Z,20.65
2019-03-04T11:23:31.907Z,20.66
2019-03-04T11:24:31.899Z,20.63
2019-03-04T11:25:31.870Z,20.66
2019-03-04T11:26:31.851Z,20.66
2019-03-04T11:27:31.865Z,20.65
2019-03-04T11:28:31.831Z,20.66
2019-03-04T11:29:31.832Z,20.66
2019-03-04T11:30:31.845Z,20.65
2019-03-04T11:31:31.801Z,20.66
2019-03-04T11:32:31.792Z,20.65
2019-03-04T11:33:31.778Z,20.66
2019-03-04T11:34:31.771Z,20.65
2019-03-04T11:35:31.757Z,20.66
2019-03-04T11:36:31.783Z,20.66
2019-03-04T11:37:31.739Z,20.66
2019-03-04T11:38:31.719Z,20.66
2019-03-04T11:39:31.713Z,20.65
2019-03-04T11:40:31.702Z,20.66
2019-03-04T11:41:31.689Z,20.63
2019-03-04T11:42:31.708Z,20.66
2019-03-04T11:43:31.667Z,20.65
2019-03-04T11:44:31.667Z,20.65
2019-03-04T11:45:31.649Z,20.65
2019-03-04T11:46:31.640Z,20.65
2019-03-04T11:47:31.648Z,20.66
2019-03-04T11:48:31.610Z,20.65
2019-03-04T11:49:31.608Z,20.66
2019-03-04T11:50:31.586Z,20.66
2019-03-04T11:51:31.575Z,20.65
2019-03-04T11:52:31.597Z,20.66
2019-03-04T11:53:31.558Z,20.65
2019-03-04T11:54:31.542Z,20.66
2019-03-04T11:55:31.538Z,20.66
2019-03-04T11:56:31.523Z,20.65
2019-03-04T11:57:31.513Z,20.65
2019-03-04T11:58:31.520Z,20.65
2019-03-04T11:59:31.488Z,20.66
2019-03-04T12:00:31.482Z,20.65
2019-03-04T12:01:31.490Z,20.66
2019-03-04T12:02:38.666Z,20.65
2019-03-04T12:03:32.465Z,20.66
2019-03-04T12:04:31.438Z,20.66
2019-03-04T12:05:31.422Z,20.66
2019-03-04T12:06:31.414Z,20.65
2019-03-04T12:07:31.405Z,20.66
2019-03-04T12:08:31.603Z,20.67
2019-03-04T12:09:31.379Z,20.66
2019-03-04T12:10:31.369Z,20.66
2019-03-04T12:11:38.055Z,20.65
2019-03-04T12:12:32.340Z,20.65
2019-03-04T12:13:31.333Z,20.65
2019-03-04T12:14:31.354Z,20.66
2019-03-04T12:15:31.309Z,20.65
2019-03-04T12:16:31.301Z,20.66
2019-03-04T12:17:31.286Z,20.65
2019-03-04T12:18:31.290Z,20.66
2019-03-04T12:19:31.271Z,20.65
2019-03-04T12:20:31.281Z,20.65
2019-03-04T12:21:31.249Z,20.65
2019-03-04T12:22:31.235Z,20.65
2019-03-04T12:23:31.306Z,20.65
2019-03-04T12:24:31.214Z,20.63
2019-03-04T12:25:31.200Z,20.65
2019-03-04T12:26:31.193Z,20.65
2019-03-04T12:27:31.178Z,20.65
2019-03-04T12:28:31.172Z,20.63
2019-03-04T12:29:31.183Z,20.63
2019-03-04T12:30:31.145Z,20.63
2019-03-04T12:31:31.138Z,20.63
2019-03-04T12:32:31.128Z,20.63
2019-03-04T12:33:31.109Z,20.63
2019-03-04T12:34:31.107Z,20.62
2019-03-04T12:35:31.116Z,20.63
2019-03-04T12:36:31.085Z,20.63
2019-03-04T12:37:31.063Z,20.65
2019-03-04T12:38:31.062Z,20.62
2019-03-04T12:39:31.046Z,20.62
2019-03-04T12:40:31.061Z,20.62
2019-03-04T12:41:31.062Z,20.62
2019-03-04T12:42:31.013Z,20.62
2019-03-04T12:43:31.001Z,20.62
2019-03-04T12:44:30.988Z,20.60
2019-03-04T12:45:34.336Z,20.62
2019-03-04T12:46:30.987Z,20.60
2019-03-04T12:47:30.980Z,20.59
2019-03-04T12:48:30.952Z,20.59
2019-03-04T12:49:30.933Z,20.58
2019-03-04T12:50:30.922Z,20.59
2019-03-04T12:51:30.917Z,20.58
2019-03-04T12:52:30.949Z,20.59